• Join FlightAware (Why Join?)
  • Login
  • US Flag 
04:05PM EDT


 

Airport Tracker/Info


-or-


 

Live Flight TrackerFlight Track Log ✈ CSN463 ✈ 10-Oct-2013 ✈ ZSPD / PVG - EDDF / FRA

Flight Track Log - Related Links

Times and Time Zones

All times are in EDT time to prevent confusion due to time zone crossing. See the CSN463 flight status page for this flight to view local times or setup timezone preferences in your user account.

Time Position Orientation Groundspeed Altitude Reporting Facility
EDT Latitude Longitude Course Direction KTS MPH feet Rate Location/Type
07:16PM 31.3610 121.7120 342° North 291 335 6,300  Level FlightAware
07:16PM 31.3870 121.7020 342° North 303 349 6,700 1,500 Climbing FlightAware
07:17PM 31.4080 121.6940 342° North 309 356 7,200 2,220 Climbing FlightAware
07:17PM 31.4360 121.6840 343° North 320 368 8,000 2,220 Climbing FlightAware
07:17PM 31.4640 121.6730 341° North 324 373 8,700 2,100 Climbing FlightAware
07:18PM 31.4920 121.6630 343° North 319 367 9,400 2,160 Climbing FlightAware
07:18PM 31.5350 121.6400 335° Northwest 328 377 10,500 1,860 Climbing FlightAware
07:18PM 31.5530 121.6230 321° Northwest 333 383 10,800 900 Climbing FlightAware
07:19PM 31.5830 121.5870 314° West 353 406 11,200 300 Climbing FlightAware
07:20PM 31.6210 121.5390 313° West 353 406 11,200  Level FlightAware
07:20PM 31.6560 121.4950 313° West 353 406 11,200 3,000 Level FlightAware
07:21PM 31.7200 121.4240 317° Northwest 391 450 14,700 2,880 Climbing FlightAware
07:21PM 31.7620 121.3740 315° West 391 450 14,700  Level FlightAware
07:22PM 31.8020 121.3280 316° Northwest 391 450 14,700  Level FlightAware
07:23PM 31.8410 121.2820 315° West 391 450 14,700 60 Level FlightAware
07:25PM 32.0146 121.1267 323° Northwest  Level Estimated
07:26PM 32.1068 121.0441 323° Northwest  Level Estimated
07:27PM 32.1988 120.9612 323° Northwest  Level Estimated
07:28PM 32.2909 120.8782 323° Northwest  Level Estimated
07:29PM 32.3828 120.7951 323° Northwest  Level Estimated
07:30PM 32.4747 120.7117 323° Northwest  Level Estimated
07:31PM 32.5666 120.6282 323° Northwest  Level Estimated
07:32PM 32.6584 120.5445 323° Northwest  Level Estimated
07:33PM 32.7501 120.4606 322° Northwest  Level Estimated
07:34PM 32.8418 120.3766 322° Northwest  Level Estimated
07:35PM 32.9334 120.2924 322° Northwest  Level Estimated
07:36PM 33.0250 120.2080 322° Northwest  Level Estimated
07:37PM 33.1165 120.1235 322° Northwest  Level Estimated
07:38PM 33.2080 120.0388 322° Northwest  Level Estimated
07:39PM 33.2994 119.9538 322° Northwest  Level Estimated
07:40PM 33.3907 119.8688 322° Northwest  Level Estimated
07:41PM 33.4820 119.7835 322° Northwest  Level Estimated
07:42PM 33.5733 119.6981 322° Northwest  Level Estimated
07:43PM 33.6644 119.6124 322° Northwest  Level Estimated
07:44PM 33.7555 119.5266 322° Northwest  Level Estimated
07:45PM 33.8466 119.4406 322° Northwest  Level Estimated
07:46PM 33.9376 119.3544 322° Northwest  Level Estimated
07:47PM 34.0285 119.2681 322° Northwest  Level Estimated
07:48PM 34.1194 119.1815 322° Northwest  Level Estimated
07:49PM 34.2102 119.0948 322° Northwest  Level Estimated
07:50PM 34.3009 119.0079 322° Northwest  Level Estimated
07:51PM 34.3916 118.9208 322° Northwest  Level Estimated
07:52PM 34.4823 118.8335 322° Northwest  Level Estimated
07:53PM 34.5728 118.7460 322° Northwest  Level Estimated
07:54PM 34.6633 118.6584 321° Northwest  Level Estimated
07:55PM 34.7537 118.5705 321° Northwest  Level Estimated
07:56PM 34.8441 118.4824 321° Northwest  Level Estimated
07:57PM 34.9344 118.3942 321° Northwest  Level Estimated
07:58PM 35.0247 118.3057 321° Northwest  Level Estimated
07:59PM 35.1149 118.2171 321° Northwest  Level Estimated
08:00PM 35.2050 118.1283 321° Northwest  Level Estimated
08:01PM 35.2950 118.0392 321° Northwest  Level Estimated
08:02PM 35.3850 117.9500 321° Northwest  Level Estimated
08:03PM 35.4749 117.8606 321° Northwest  Level Estimated
08:04PM 35.5648 117.7709 321° Northwest  Level Estimated
08:05PM 35.6546 117.6811 321° Northwest  Level Estimated
08:06PM 35.7443 117.5911 321° Northwest  Level Estimated
08:07PM 35.8340 117.5008 321° Northwest  Level Estimated
08:08PM 35.9235 117.4104 321° Northwest  Level Estimated
08:09PM 36.0131 117.3197 321° Northwest  Level Estimated
08:10PM 36.1025 117.2289 321° Northwest  Level Estimated
08:11PM 36.1919 117.1378 321° Northwest  Level Estimated
08:12PM 36.2812 117.0466 321° Northwest  Level Estimated
08:13PM 36.3704 116.9551 320° Northwest  Level Estimated
08:14PM 36.4596 116.8634 320° Northwest  Level Estimated
08:15PM 36.5487 116.7715 320° Northwest  Level Estimated
08:16PM 36.6377 116.6794 320° Northwest  Level Estimated
08:17PM 36.7267 116.5871 320° Northwest  Level Estimated
08:18PM 36.8156 116.4945 320° Northwest  Level Estimated
08:19PM 36.9044 116.4018 320° Northwest  Level Estimated
08:20PM 36.9932 116.3088 320° Northwest  Level Estimated
08:21PM 37.0818 116.2156 320° Northwest  Level Estimated
08:22PM 37.1704 116.1222 320° Northwest  Level Estimated
08:23PM 37.2590 116.0286 320° Northwest  Level Estimated
08:24PM 37.3474 115.9348 320° Northwest  Level Estimated
08:25PM 37.4358 115.8407 320° Northwest  Level Estimated
08:26PM 37.5241 115.7464 320° Northwest  Level Estimated
08:27PM 37.6123 115.6519 320° Northwest  Level Estimated
08:28PM 37.7005 115.5571 320° Northwest  Level Estimated
08:29PM 37.7886 115.4622 320° Northwest  Level Estimated
08:30PM 37.8765 115.3670 320° Northwest  Level Estimated
08:31PM 37.9645 115.2716 319° Northwest  Level Estimated
08:32PM 38.0523 115.1759 319° Northwest  Level Estimated
08:33PM 38.1401 115.0801 319° Northwest  Level Estimated
08:34PM 38.2278 114.9840 319° Northwest  Level Estimated
08:35PM 38.3154 114.8876 319° Northwest  Level Estimated
08:36PM 38.4029 114.7911 319° Northwest  Level Estimated
08:37PM 38.4904 114.6943 319° Northwest  Level Estimated
08:38PM 38.5777 114.5972 319° Northwest  Level Estimated
08:39PM 38.6650 114.4999 319° Northwest  Level Estimated
08:40PM 38.7522 114.4024 319° Northwest  Level Estimated
08:41PM 38.8394 114.3047 319° Northwest  Level Estimated
08:42PM 38.9264 114.2067 319° Northwest  Level Estimated
08:43PM 39.0134 114.1085 319° Northwest  Level Estimated
08:44PM 39.1003 114.0100 319° Northwest  Level Estimated
08:45PM 39.1871 113.9113 319° Northwest  Level Estimated
08:46PM 39.2738 113.8123 319° Northwest  Level Estimated
08:47PM 39.3604 113.7131 318° Northwest  Level Estimated
08:48PM 39.4470 113.6137 318° Northwest  Level Estimated
08:49PM 39.5334 113.5140 318° Northwest  Level Estimated
08:50PM 39.6198 113.4140 318° Northwest  Level Estimated
08:51PM 39.7061 113.3138 318° Northwest  Level Estimated
08:52PM 39.7923 113.2134 318° Northwest  Level Estimated
08:53PM 39.8784 113.1127 318° Northwest  Level Estimated
08:54PM 39.9645 113.0117 318° Northwest  Level Estimated
08:55PM 40.0504 112.9105 318° Northwest  Level Estimated
08:56PM 40.1363 112.8090 318° Northwest  Level Estimated
08:57PM 40.2220 112.7073 318° Northwest  Level Estimated
08:58PM 40.3077 112.6053 318° Northwest  Level Estimated
08:59PM 40.3933 112.5031 318° Northwest  Level Estimated
09:00PM 40.4788 112.4006 318° Northwest  Level Estimated
09:01PM 40.5642 112.2978 318° Northwest  Level Estimated
09:02PM 40.6496 112.1948 318° Northwest  Level Estimated
09:03PM 40.7348 112.0915 317° Northwest  Level Estimated
09:04PM 40.8199 111.9880 317° Northwest  Level Estimated
09:05PM 40.9049 111.8842 317° Northwest  Level Estimated
09:06PM 40.9899 111.7801 317° Northwest  Level Estimated
09:07PM 41.0747 111.6758 317° Northwest  Level Estimated
09:08PM 41.1595 111.5711 317° Northwest  Level Estimated
09:09PM 41.2442 111.4662 317° Northwest  Level Estimated
09:10PM 41.3287 111.3611 317° Northwest  Level Estimated
09:11PM 41.4132 111.2557 317° Northwest  Level Estimated
09:12PM 41.4976 111.1499 317° Northwest  Level Estimated
09:13PM 41.5819 111.0440 317° Northwest  Level Estimated
09:14PM 41.6660 110.9377 317° Northwest  Level Estimated
09:15PM 41.7501 110.8312 317° Northwest  Level Estimated
09:16PM 41.8341 110.7243 317° Northwest  Level Estimated
09:17PM 41.9180 110.6172 316° Northwest  Level Estimated
09:18PM 42.0018 110.5099 316° Northwest  Level Estimated
09:19PM 42.0855 110.4022 316° Northwest  Level Estimated
09:20PM 42.1691 110.2943 316° Northwest  Level Estimated
09:21PM 42.2525 110.1860 316° Northwest  Level Estimated
09:22PM 42.3359 110.0775 316° Northwest  Level Estimated
09:23PM 42.4192 109.9687 316° Northwest  Level Estimated
09:24PM 42.5024 109.8596 316° Northwest  Level Estimated
09:25PM 42.5854 109.7502 316° Northwest  Level Estimated
09:26PM 42.6684 109.6405 316° Northwest  Level Estimated
09:27PM 42.7513 109.5305 316° Northwest  Level Estimated
09:28PM 42.8340 109.4203 316° Northwest  Level Estimated
09:29PM 42.9167 109.3097 316° Northwest  Level Estimated
09:30PM 42.9992 109.1989 316° Northwest  Level Estimated
09:31PM 43.0817 109.0877 315° West  Level Estimated
09:32PM 43.1640 108.9762 315° West  Level Estimated
09:33PM 43.2462 108.8645 315° West  Level Estimated
09:34PM 43.3283 108.7524 315° West  Level Estimated
09:35PM 43.4103 108.6401 315° West  Level Estimated
09:36PM 43.4922 108.5274 315° West  Level Estimated
09:37PM 43.5740 108.4144 315° West  Level Estimated
09:38PM 43.6557 108.3011 315° West  Level Estimated
09:39PM 43.7372 108.1876 315° West  Level Estimated
09:40PM 43.8187 108.0736 315° West  Level Estimated
09:41PM 43.9000 107.9594 315° West  Level Estimated
09:42PM 43.9812 107.8449 315° West  Level Estimated
09:43PM 44.0623 107.7301 315° West  Level Estimated
09:44PM 44.1433 107.6149 314° West  Level Estimated
09:45PM 44.2242 107.4995 314° West  Level Estimated
09:46PM 44.3049 107.3837 314° West  Level Estimated
09:47PM 44.3856 107.2676 314° West  Level Estimated
09:48PM 44.4661 107.1512 314° West  Level Estimated
09:49PM 44.5465 107.0344 314° West  Level Estimated
09:50PM 44.6268 106.9174 314° West  Level Estimated
09:51PM 44.7069 106.8000 314° West  Level Estimated
09:52PM 44.7870 106.6823 314° West  Level Estimated
09:53PM 44.8669 106.5642 314° West  Level Estimated
09:54PM 44.9467 106.4458 314° West  Level Estimated
09:55PM 45.0263 106.3271 314° West  Level Estimated
09:56PM 45.1059 106.2081 313° West  Level Estimated
09:57PM 45.1853 106.0888 313° West  Level Estimated
09:58PM 45.2646 105.9690 313° West  Level Estimated
09:59PM 45.3438 105.8490 313° West  Level Estimated
10:00PM 45.4229 105.7287 313° West  Level Estimated
10:01PM 45.5018 105.6079 313° West  Level Estimated
10:02PM 45.5806 105.4869 313° West  Level Estimated
10:03PM 45.6592 105.3655 313° West  Level Estimated
10:04PM 45.7378 105.2438 313° West  Level Estimated
10:05PM 45.8162 105.1217 313° West  Level Estimated
10:06PM 45.8945 104.9993 313° West  Level Estimated
10:07PM 45.9726 104.8766 313° West  Level Estimated
10:08PM 46.0507 104.7535 312° West  Level Estimated
10:09PM 46.1285 104.6300 312° West  Level Estimated
10:10PM 46.2063 104.5062 312° West  Level Estimated
10:11PM 46.2839 104.3821 312° West  Level Estimated
10:12PM 46.3614 104.2576 312° West  Level Estimated
10:13PM 46.4387 104.1327 312° West  Level Estimated
10:14PM 46.5159 104.0075 312° West  Level Estimated
10:15PM 46.5930 103.8820 312° West  Level Estimated
10:16PM 46.6699 103.7560 312° West  Level Estimated
10:17PM 46.7467 103.6298 312° West  Level Estimated
10:18PM 46.8234 103.5031 312° West  Level Estimated
10:19PM 46.8999 103.3761 311° West  Level Estimated
10:20PM 46.9763 103.2487 311° West  Level Estimated
10:21PM 47.0526 103.1210 311° West  Level Estimated
10:22PM 47.1286 102.9929 311° West  Level Estimated
10:23PM 47.2046 102.8645 311° West  Level Estimated
10:24PM 47.2804 102.7356 311° West  Level Estimated
10:25PM 47.3561 102.6064 311° West  Level Estimated
10:26PM 47.4316 102.4769 311° West  Level Estimated
10:27PM 47.5070 102.3469 311° West  Level Estimated
10:28PM 47.5822 102.2166 311° West  Level Estimated
10:29PM 47.6572 102.0859 310° West  Level Estimated
10:30PM 47.7322 101.9548 310° West  Level Estimated
10:31PM 47.8069 101.8234 310° West  Level Estimated
10:32PM 47.8816 101.6916 310° West  Level Estimated
10:33PM 47.9560 101.5594 310° West  Level Estimated
10:34PM 48.0303 101.4268 310° West  Level Estimated
10:35PM 48.1045 101.2939 310° West  Level Estimated
10:36PM 48.1785 101.1605 310° West  Level Estimated
10:37PM 48.2524 101.0268 310° West  Level Estimated
10:38PM 48.3261 100.8926 310° West  Level Estimated
10:39PM 48.3996 100.7581 310° West  Level Estimated
10:40PM 48.4730 100.6232 309° West  Level Estimated
10:41PM 48.5463 100.4880 309° West  Level Estimated
10:42PM 48.6193 100.3523 309° West  Level Estimated
10:43PM 48.6922 100.2162 309° West  Level Estimated
10:44PM 48.7650 100.0797 309° West  Level Estimated
10:45PM 48.8376 99.9429 309° West  Level Estimated
10:46PM 48.9100 99.8056 309° West  Level Estimated
10:47PM 48.9823 99.6680 309° West  Level Estimated
10:48PM 49.0544 99.5299 309° West  Level Estimated
10:49PM 49.1263 99.3914 308° West  Level Estimated
10:50PM 49.1981 99.2526 308° West  Level Estimated
10:51PM 49.2697 99.1133 308° West  Level Estimated
10:52PM 49.3411 98.9736 308° West  Level Estimated
10:53PM 49.4124 98.8336 308° West  Level Estimated
10:54PM 49.4835 98.6931 308° West  Level Estimated
10:55PM 49.5544 98.5522 308° West  Level Estimated
10:56PM 49.6252 98.4109 308° West  Level Estimated
10:57PM 49.6958 98.2692 308° West  Level Estimated
10:58PM 49.7662 98.1271 308° West  Level Estimated
10:59PM 49.8364 97.9845 307° West  Level Estimated
11:00PM 49.9065 97.8416 307° West  Level Estimated
11:01PM 49.9763 97.6982 307° West  Level Estimated
11:02PM 50.0461 97.5545 307° West  Level Estimated
11:03PM 50.1156 97.4103 307° West  Level Estimated
11:04PM 50.1849 97.2656 307° West  Level Estimated
11:05PM 50.2541 97.1206 307° West  Level Estimated
11:06PM 50.3231 96.9752 307° West  Level Estimated
11:07PM 50.3919 96.8293 307° West  Level Estimated
11:08PM 50.4605 96.6830 306° West  Level Estimated
11:09PM 50.5290 96.5363 306° West  Level Estimated
11:10PM 50.5972 96.3891 306° West  Level Estimated
11:11PM 50.6653 96.2415 306° West  Level Estimated
11:12PM 50.7332 96.0935 306° West  Level Estimated
11:13PM 50.8008 95.9451 306° West  Level Estimated
11:14PM 50.8684 95.7962 306° West  Level Estimated
11:15PM 50.9357 95.6469 306° West  Level Estimated
11:16PM 51.0028 95.4972 306° West  Level Estimated
11:17PM 51.0697 95.3470 305° West  Level Estimated
11:18PM 51.1365 95.1964 305° West  Level Estimated
11:19PM 51.2030 95.0454 305° West  Level Estimated
11:20PM 51.2693 94.8939 305° West  Level Estimated
11:21PM 51.3355 94.7420 305° West  Level Estimated
11:22PM 51.4015 94.5897 305° West  Level Estimated
11:23PM 51.4672 94.4369 305° West  Level Estimated
11:24PM 51.5328 94.2837 305° West  Level Estimated
11:25PM 51.5981 94.1300 304° West  Level Estimated
11:26PM 51.6633 93.9759 304° West  Level Estimated
11:27PM 51.7282 93.8214 304° West  Level Estimated
11:28PM 51.7930 93.6664 304° West  Level Estimated
11:29PM 51.8576 93.5109 304° West  Level Estimated
11:30PM 51.9219 93.3551 304° West  Level Estimated
11:31PM 51.9860 93.1987 304° West  Level Estimated
11:32PM 52.0500 93.0420 304° West  Level Estimated
11:33PM 52.1137 92.8847 303° West  Level Estimated
11:34PM 52.1772 92.7271 303° West  Level Estimated
11:35PM 52.2405 92.5689 303° West  Level Estimated
11:36PM 52.3036 92.4103 303° West  Level Estimated
11:37PM 52.3665 92.2513 303° West  Level Estimated
11:38PM 52.4291 92.0918 303° West  Level Estimated
11:39PM 52.4916 91.9319 303° West  Level Estimated
11:40PM 52.5538 91.7715 303° West  Level Estimated
11:41PM 52.6158 91.6107 302° West  Level Estimated
11:41PM 51.8670 93.4070 302° West 425 489 32,000  Level FlightAware
11:41PM 51.8970 93.3170 298° West 426 490 32,000  Level FlightAware
11:42PM 52.6776 91.4494 302° West  Level Estimated
11:42PM 51.9340 93.2060 298° West 426 490 32,000  Level FlightAware
11:43PM 51.9660 93.1100 298° West 426 490 32,000  Level FlightAware
11:43PM 52.0030 93.0000 299° West 426 490 32,000  Level FlightAware
11:44PM 52.0480 92.8660 299° West 426 490 32,000  Level FlightAware
11:45PM 52.0800 92.7700 299° West 424 488 32,000  Level FlightAware
11:45PM 52.1140 92.6670 298° West 424 488 32,000  Level FlightAware
11:46PM 52.1480 92.5630 298° West 424 488 32,000  Level FlightAware
11:46PM 52.1810 92.4650 299° West 425 489 32,000  Level FlightAware
11:47PM 52.2150 92.3610 298° West 425 489 32,000  Level FlightAware
11:48PM 52.2460 92.2650 298° West 424 488 32,000  Level FlightAware
11:48PM 52.2770 92.1680 298° West 424 488 32,000  Level FlightAware
11:49PM 52.3040 92.0850 298° West 424 488 32,000  Level FlightAware
11:50PM 52.3460 91.9550 298° West 424 488 32,000  Level FlightAware
11:50PM 52.3820 91.8420 298° West 424 488 32,000  Level FlightAware
11:51PM 52.4100 91.7530 297° West 423 487 32,000  Level FlightAware
11:51PM 52.4480 91.6330 297° West 424 488 32,000  Level FlightAware
11:52PM 52.4830 91.5220 297° West 423 487 32,000  Level FlightAware
11:53PM 52.5160 91.4170 297° West 422 486 32,000  Level FlightAware
11:53PM 52.5490 91.3120 297° West 422 486 32,000  Level FlightAware
11:54PM 52.5820 91.2070 297° West 422 486 32,000  Level FlightAware
11:54PM 52.6120 91.1090 297° West 422 486 32,000  Level FlightAware
11:55PM 52.6430 91.0120 298° West 422 486 32,000  Level FlightAware
11:56PM 52.6680 90.9270 296° West 428 493 32,000  Level FlightAware
11:56PM 52.7050 90.8050 297° West 429 494 32,000  Level FlightAware
11:57PM 52.7340 90.7110 297° West 429 494 32,000  Level FlightAware
11:57PM 52.7690 90.5960 297° West 427 491 32,000  Level FlightAware
11:58PM 52.7960 90.5070 297° West 427 491 32,000  Level FlightAware
11:59PM 52.8280 90.4000 296° West 426 490 32,000  Level FlightAware
11:59PM 52.8600 90.2940 297° West 428 493 32,000  Level FlightAware
12:00AM 52.8900 90.1910 296° West 430 495 32,000  Level FlightAware
12:00AM 52.9210 90.0890 297° West 430 495 32,000  Level FlightAware
12:01AM 52.9490 89.9950 296° West 430 495 32,000  Level FlightAware
12:01AM 52.9830 89.8780 296° West 429 494 32,000  Level FlightAware
12:02AM 53.0130 89.7740 296° West 428 493 32,000  Level FlightAware
12:03AM 53.0480 89.6570 296° West 432 497 32,000  Level FlightAware
12:03AM 53.0780 89.5520 295° West 428 493 32,000  Level FlightAware
12:04AM 53.1080 89.4480 296° West 431 496 32,000  Level FlightAware
12:04AM 53.1380 89.3430 296° West 433 498 32,000  Level FlightAware
12:05AM 53.1680 89.2390 296° West 432 497 32,000  Level FlightAware
12:06AM 53.1980 89.1340 296° West 430 495 32,000  Level FlightAware
12:06AM 53.2280 89.0280 295° West 431 496 32,000  Level FlightAware
12:07AM 53.2580 88.9240 296° West 431 496 32,000  Level FlightAware
12:07AM 53.2870 88.8180 295° West 432 497 32,000  Level FlightAware
12:08AM 53.3170 88.7120 295° West 432 497 32,000  Level FlightAware
12:09AM 53.3470 88.6070 296° West 433 498 32,000  Level FlightAware
12:09AM 53.3770 88.4970 295° West 432 497 32,000  Level FlightAware
12:10AM 53.4060 88.3940 295° West 427 491 32,000  Level FlightAware
12:10AM 53.4350 88.2870 294° West 426 490 32,000  Level FlightAware
12:11AM 53.4640 88.1830 295° West 426 490 32,000  Level FlightAware
12:12AM 53.4920 88.0780 294° West 426 490 32,000  Level FlightAware
12:12AM 53.5210 87.9730 295° West 426 490 32,000  Level FlightAware
12:13AM 53.5490 87.8680 294° West 425 489 32,000  Level FlightAware
12:13AM 53.5780 87.7620 295° West 425 489 32,000  Level FlightAware
12:14AM 53.6060 87.6570 294° West 426 490 32,000  Level FlightAware
12:14AM 53.6340 87.5520 294° West 427 491 32,000  Level FlightAware
12:15AM 53.6620 87.4460 294° West 428 493 32,000  Level FlightAware
12:16AM 53.6890 87.3420 294° West 428 493 32,000  Level FlightAware
12:16AM 53.7180 87.2320 294° West 427 491 32,000  Level FlightAware
12:17AM 53.7460 87.1260 294° West 429 494 32,000  Level FlightAware
12:17AM 53.7740 87.0200 294° West 429 494 32,000  Level FlightAware
12:18AM 53.8020 86.9130 294° West 431 496 32,000  Level FlightAware
12:19AM 53.8350 86.8070 298° West 435 501 32,000  Level FlightAware
12:19AM 53.8690 86.7070 300° West 434 499 32,000  Level FlightAware
12:20AM 53.9110 86.5850 300° West 436 502 32,000  Level FlightAware
12:21AM 53.9610 86.4370 300° West 435 501 32,000  Level FlightAware
12:21AM 53.9960 86.3330 300° West 434 499 32,000  Level FlightAware
12:22AM 54.0310 86.2300 300° West 434 499 32,000  Level FlightAware
12:22AM 54.0660 86.1260 300° West 434 499 32,000  Level FlightAware
12:23AM 54.1010 86.0220 300° West 434 499 32,000  Level FlightAware
12:24AM 54.1350 85.9180 299° West 434 499 32,000  Level FlightAware
12:24AM 54.1690 85.8150 299° West 435 501 32,000  Level FlightAware
12:25AM 54.2040 85.7080 299° West 436 502 32,000  Level FlightAware
12:25AM 54.2390 85.6040 300° West 436 502 32,000  Level FlightAware
12:26AM 54.2730 85.4980 299° West 438 504 32,000  Level FlightAware
12:26AM 54.3080 85.3920 300° West 437 503 32,000  Level FlightAware
12:27AM 54.3420 85.2860 299° West 437 503 32,000  Level FlightAware
12:28AM 54.3760 85.1800 299° West 437 503 32,000  Level FlightAware
12:28AM 54.4100 85.0740 299° West 435 501 32,000  Level FlightAware
12:29AM 54.4440 84.9680 299° West 437 503 32,000  Level FlightAware
12:29AM 54.4780 84.8620 299° West 436 502 32,000  Level FlightAware
12:30AM 54.5110 84.7570 298° West 435 501 32,000  Level FlightAware
12:31AM 54.5450 84.6510 299° West 433 498 32,000  Level FlightAware
12:31AM 54.5780 84.5450 298° West 434 499 32,000  Level FlightAware
12:32AM 54.6110 84.4380 298° West 435 501 32,000  Level FlightAware
12:32AM 54.6450 84.3310 299° West 434 499 32,000  Level FlightAware
12:33AM 54.6780 84.2240 298° West 436 502 32,000  Level FlightAware
12:33AM 54.7110 84.1160 298° West 436 502 32,000  Level FlightAware
12:34AM 54.7440 84.0100 298° West 437 503 32,000  Level FlightAware
12:35AM 54.7770 83.9020 298° West 435 501 32,000  Level FlightAware
12:35AM 54.8050 83.8100 298° West 435 501 32,000  Level FlightAware
12:36AM 54.8420 83.6850 297° West 436 502 32,000  Level FlightAware
12:36AM 54.8750 83.5780 298° West 439 505 32,000  Level FlightAware
12:37AM 54.9080 83.4680 298° West 441 507 32,000  Level FlightAware
12:38AM 54.9410 83.3580 298° West 441 507 32,000  Level FlightAware
12:38AM 54.9730 83.2480 297° West 442 509 32,000  Level FlightAware
12:39AM 55.0110 83.1220 298° West 443 510 32,000  Level FlightAware
12:39AM 55.0440 83.0100 297° West 443 510 32,000  Level FlightAware
12:40AM 55.0770 82.9010 298° West 446 513 32,000  Level FlightAware
12:41AM 55.1240 82.7830 305° West 446 513 32,000  Level FlightAware
12:41AM 55.1600 82.6960 306° West 445 512 32,000  Level FlightAware
12:42AM 55.2020 82.5950 306° West 443 510 32,000  Level FlightAware
12:42AM 55.2510 82.4790 307° West 443 510 32,000  Level FlightAware
12:43AM 55.2840 82.3900 303° West 438 504 32,000  Level FlightAware
12:43AM 55.3170 82.2800 298° West 435 501 32,000  Level FlightAware
12:44AM 55.3530 82.1540 297° West 433 498 32,000  Level FlightAware
12:45AM 55.3790 82.0600 296° West 434 499 32,000  Level FlightAware
12:45AM 55.4100 81.9490 296° West 433 498 32,000  Level FlightAware
12:46AM 55.4450 81.8230 296° West 433 498 32,000  Level FlightAware
12:46AM 55.4720 81.7270 296° West 433 498 32,000  Level FlightAware
12:47AM 55.5020 81.6170 296° West 433 498 32,000  Level FlightAware
12:48AM 55.5330 81.5050 296° West 433 498 32,000  Level FlightAware
12:48AM 55.5670 81.3800 296° West 430 495 32,000  Level FlightAware
12:49AM 55.5930 81.2840 296° West 428 493 32,000  Level FlightAware
12:49AM 55.6230 81.1740 296° West 427 491 32,000  Level FlightAware
12:50AM 55.6520 81.0640 295° West 424 488 32,000  Level FlightAware
12:51AM 55.6860 80.9400 296° West 422 486 32,000  Level FlightAware
12:51AM 55.7110 80.8460 295° West 422 486 32,000  Level FlightAware
12:52AM 55.7400 80.7370 295° West 423 487 32,000  Level FlightAware
12:52AM 55.7690 80.6260 295° West 425 489 32,000  Level FlightAware
12:53AM 55.8030 80.5000 296° West 425 489 32,000  Level FlightAware
12:53AM 55.8270 80.4050 294° West 425 489 32,000  Level FlightAware
12:54AM 55.8560 80.2950 295° West 427 491 32,000  Level FlightAware
12:55AM 55.8890 80.1660 295° West 429 494 32,000  Level FlightAware
12:55AM 55.9140 80.0700 295° West 429 494 32,000  Level FlightAware
12:56AM 55.9430 79.9580 295° West 429 494 32,000  Level FlightAware
12:56AM 55.9760 79.8290 295° West 430 495 32,000  Level FlightAware
12:57AM 56.0000 79.7320 294° West 431 496 32,000  Level FlightAware
12:57AM 56.0290 79.6200 295° West 433 498 32,000  Level FlightAware
12:58AM 56.0620 79.4880 294° West 433 498 32,000  Level FlightAware
12:59AM 56.0830 79.4050 294° West 432 497 32,000  Level FlightAware
12:59AM 56.1140 79.2780 294° West 431 496 32,000  Level FlightAware
01:00AM 56.1470 79.1450 294° West 429 494 32,000  Level FlightAware
01:01AM 56.1790 79.0160 294° West 428 493 32,000  Level FlightAware
01:01AM 56.2110 78.8870 294° West 429 494 32,000  Level FlightAware
01:02AM 56.2390 78.7720 294° West 429 494 32,000  Level FlightAware
01:03AM 56.2720 78.6320 293° West 429 494 32,000  Level FlightAware
01:03AM 56.2960 78.5280 293° West 429 494 32,000  Level FlightAware
01:04AM 56.3200 78.4270 293° West 429 494 32,000  Level FlightAware
01:04AM 56.3430 78.3320 294° West 429 494 32,000  Level FlightAware
01:05AM 56.3660 78.2310 292° West 429 494 32,000  Level FlightAware
01:06AM 56.3900 78.1300 293° West 429 494 32,000  Level FlightAware
01:06AM 56.4400 77.9070 292° West 32,000  Level FlightAware
01:07AM 56.4770 77.7450 293° West 437 503 32,000  Level FlightAware
01:08AM 56.5040 77.6230 292° West 433 498 32,000  Level FlightAware
01:08AM 56.5340 77.4880 292° West 433 498 32,000  Level FlightAware
01:09AM 56.5600 77.3690 292° West 435 501 32,000  Level FlightAware
01:09AM 56.5810 77.2700 291° West 436 502 32,000  Level FlightAware
01:10AM 56.6060 77.1490 291° West 438 504 32,000  Level FlightAware
01:11AM 56.6350 77.0120 291° West 437 503 32,000  Level FlightAware
01:11AM 56.6600 76.8930 291° West 436 502 32,000  Level FlightAware
01:12AM 56.6890 76.7570 291° West 435 501 32,000  Level FlightAware
01:12AM 56.7130 76.6380 290° West 436 502 32,000  Level FlightAware
01:13AM 56.7380 76.5180 291° West 436 502 32,000  Level FlightAware
01:14AM 56.7630 76.3990 291° West 435 501 32,000  Level FlightAware
01:14AM 56.7870 76.2790 290° West 436 502 32,000  Level FlightAware
01:15AM 56.8110 76.1590 290° West 435 501 32,000  Level FlightAware
01:15AM 56.8360 76.0380 291° West 436 502 32,000  Level FlightAware
01:16AM 56.8600 75.9170 290° West 437 503 32,000  Level FlightAware
01:16AM 56.8840 75.7960 290° West 436 502 32,000  Level FlightAware
01:17AM 56.9070 75.6760 289° West 436 502 32,000  Level FlightAware
01:18AM 56.9310 75.5560 290° West 438 504 32,000  Level FlightAware
01:18AM 56.9550 75.4340 290° West 438 504 32,000  Level FlightAware
01:19AM 56.9790 75.3120 290° West 438 504 32,000  Level FlightAware
01:19AM 57.0020 75.1900 289° West 439 505 32,000  Level FlightAware
01:20AM 57.0260 75.0670 290° West 439 505 32,000  Level FlightAware
01:21AM 57.0490 74.9450 289° West 440 506 32,000  Level FlightAware
01:21AM 57.0720 74.8220 289° West 440 506 32,000  Level FlightAware
01:22AM 57.0950 74.7000 289° West 441 507 32,000  Level FlightAware
01:22AM 57.1180 74.5760 289° West 443 510 32,000  Level FlightAware
01:23AM 57.1410 74.4510 289° West 443 510 32,000  Level FlightAware
01:23AM 57.1640 74.3270 289° West 441 507 32,000  Level FlightAware
01:24AM 57.1870 74.2040 289° West 440 506 32,000  Level FlightAware
01:25AM 57.2090 74.0790 288° West 439 505 32,000  Level FlightAware
01:25AM 57.2310 73.9570 288° West 438 504 32,000  Level FlightAware
01:26AM 57.2540 73.8320 289° West 438 504 32,000  Level FlightAware
01:26AM 57.2750 73.7100 288° West 437 503 32,000  Level FlightAware
01:27AM 57.2980 73.5850 289° West 439 505 32,000  Level FlightAware
01:28AM 57.3200 73.4610 288° West 440 506 32,000  Level FlightAware
01:28AM 57.3410 73.3400 288° West 438 504 32,000  Level FlightAware
01:29AM 57.3630 73.2130 288° West 438 504 32,000  Level FlightAware
01:29AM 57.3850 73.0870 288° West 437 503 32,000  Level FlightAware
01:30AM 57.4060 72.9640 288° West 437 503 32,000  Level FlightAware
01:30AM 57.4270 72.8440 288° West 438 504 32,000  Level FlightAware
01:31AM 57.4490 72.7140 288° West 439 505 32,000  Level FlightAware
01:32AM 57.4700 72.5890 287° West 439 505 32,000  Level FlightAware
01:32AM 57.4900 72.4710 288° West 439 505 32,000  Level FlightAware
01:33AM 57.5120 72.3390 287° West 439 505 32,000  Level FlightAware
01:33AM 57.5330 72.2120 287° West 439 505 32,000  Level FlightAware
01:34AM 57.5540 72.0860 287° West 440 506 32,000  Level FlightAware
01:35AM 57.5740 71.9600 287° West 440 506 32,000  Level FlightAware
01:35AM 57.5950 71.8340 287° West 440 506 32,000  Level FlightAware
01:36AM 57.6150 71.7080 287° West 440 506 32,000  Level FlightAware
01:36AM 57.6350 71.5800 286° West 439 505 32,000  Level FlightAware
01:37AM 57.6550 71.4540 287° West 440 506 32,000  Level FlightAware
01:37AM 57.6750 71.3270 286° West 439 505 32,000  Level FlightAware
01:38AM 57.6950 71.1990 286° West 440 506 32,000  Level FlightAware
01:39AM 57.7150 71.0740 287° West 441 507 32,000  Level FlightAware
01:39AM 57.7370 70.9470 288° West 441 507 32,000  Level FlightAware
01:40AM 57.7580 70.8200 287° West 441 507 32,000  Level FlightAware
01:40AM 57.7780 70.6920 286° West 441 507 32,000  Level FlightAware
01:41AM 57.7990 70.5650 287° West 442 509 32,000  Level FlightAware
01:42AM 57.8190 70.4360 286° West 443 510 32,000  Level FlightAware
01:42AM 57.8400 70.3080 287° West 443 510 32,000  Level FlightAware
01:43AM 57.8600 70.1790 286° West 442 509 32,000  Level FlightAware
01:43AM 57.8800 70.0520 287° West 443 510 32,000  Level FlightAware
01:44AM 57.9030 69.9050 286° West 441 507 32,000  Level FlightAware
01:44AM 57.9190 69.7960 285° West 440 506 32,000  Level FlightAware
01:45AM 57.9390 69.6680 286° West 440 506 32,000  Level FlightAware
01:46AM 57.9610 69.5220 286° West 437 503 32,000  Level FlightAware
01:46AM 57.9780 69.4130 286° West 437 503 32,000  Level FlightAware
01:47AM 57.9970 69.2850 286° West 436 502 32,000  Level FlightAware
01:47AM 58.0160 69.1570 286° West 436 502 32,000  Level FlightAware
01:48AM 58.0370 69.0130 285° West 435 501 32,000  Level FlightAware
01:49AM 58.0530 68.9020 285° West 435 501 32,000  Level FlightAware
01:49AM 58.0710 68.7740 285° West 435 501 32,000  Level FlightAware
01:50AM 58.0900 68.6480 286° West 435 501 32,000  Level FlightAware
01:50AM 58.1110 68.5010 285° West 434 499 32,000  Level FlightAware
01:51AM 58.1260 68.3910 285° West 433 498 32,000  Level FlightAware
01:51AM 58.1460 68.2660 287° West 430 495 32,000  Level FlightAware
01:52AM 58.1750 68.1480 295° West 429 494 32,000  Level FlightAware
01:53AM 58.2090 68.0130 296° West 429 494 32,000  Level FlightAware
01:53AM 58.2380 67.8980 296° West 430 495 32,000  Level FlightAware
01:54AM 58.2640 67.7930 295° West 430 495 32,000  Level FlightAware
01:55AM 58.2890 67.6880 294° West 430 495 32,000  Level FlightAware
01:55AM 58.3150 67.5830 295° West 430 495 32,000  Level FlightAware
01:56AM 58.3410 67.4780 295° West 430 495 32,000  Level FlightAware
01:56AM 58.3660 67.3720 294° West 430 495 32,000  Level FlightAware
01:57AM 58.3920 67.2670 295° West 430 495 32,000  Level FlightAware
01:58AM 58.4180 67.1620 295° West 430 495 32,000  Level FlightAware
01:58AM 58.4440 67.0570 295° West 430 495 32,000  Level FlightAware
01:59AM 58.4710 66.9450 295° West 430 495 32,000  Level FlightAware
01:59AM 58.4970 66.8370 295° West 430 495 32,000  Level FlightAware
02:00AM 58.5230 66.7310 295° West 430 495 32,000  Level FlightAware
02:01AM 58.5490 66.6220 295° West 430 495 32,000  Level FlightAware
02:01AM 58.5750 66.5170 295° West 430 495 32,000  Level FlightAware
02:02AM 58.6010 66.4110 295° West 430 495 32,000  Level FlightAware
02:02AM 58.6270 66.3020 295° West 430 495 32,000  Level FlightAware
02:05AM 58.6718 65.8541 281° West  Level Estimated
02:06AM 58.6931 65.6353 281° West  Level Estimated
02:07AM 58.7140 65.4161 281° West  Level Estimated
02:08AM 58.7345 65.1967 280° West  Level Estimated
02:09AM 58.7547 64.9771 280° West  Level Estimated
02:10AM 58.7745 64.7572 280° West  Level Estimated
02:11AM 58.7939 64.5370 280° West  Level Estimated
02:12AM 58.8130 64.3166 280° West  Level Estimated
02:13AM 58.8316 64.0960 279° West  Level Estimated
02:14AM 58.8499 63.8751 279° West  Level Estimated
02:15AM 58.8678 63.6540 279° West  Level Estimated
02:16AM 58.8854 63.4326 279° West  Level Estimated
02:17AM 58.9025 63.2111 279° West  Level Estimated
02:18AM 58.9193 62.9893 278° West  Level Estimated
02:19AM 58.9357 62.7673 278° West  Level Estimated
02:20AM 58.9517 62.5451 278° West  Level Estimated
02:21AM 58.9674 62.3227 278° West  Level Estimated
02:22AM 58.9826 62.1001 278° West  Level Estimated
02:23AM 58.9975 61.8773 277° West  Level Estimated
02:24AM 59.0120 61.6543 277° West  Level Estimated
02:25AM 59.0261 61.4311 277° West  Level Estimated
02:26AM 59.0398 61.2078 277° West  Level Estimated
02:27AM 59.0532 60.9843 277° West  Level Estimated
02:27AM 59.5480 60.7130 277° West 432 497 32,000  Level FlightAware
02:27AM 59.5650 60.5440 281° West 426 490 32,000  Level FlightAware
02:28AM 59.5960 60.4120 295° West 422 486 32,000  Level FlightAware
02:29AM 59.6270 60.2970 298° West 421 484 32,000  Level FlightAware
02:29AM 59.6660 60.1500 298° West 422 486 32,000  Level FlightAware
02:30AM 59.6920 60.0490 297° West 424 488 32,000  Level FlightAware
02:30AM 59.7220 59.9320 297° West 424 488 32,000  Level FlightAware
02:31AM 59.7460 59.8400 297° West 425 489 32,000  Level FlightAware
02:32AM 59.7860 59.6810 297° West 427 491 32,000  Level FlightAware
02:32AM 59.8190 59.5530 297° West 426 490 32,000  Level FlightAware
02:33AM 59.8510 59.4250 297° West 427 491 32,000  Level FlightAware
02:34AM 59.8890 59.2720 296° West 426 490 32,000  Level FlightAware
02:34AM 59.9220 59.1400 297° West 425 489 32,000  Level FlightAware
02:35AM 59.9480 59.0340 296° West 424 488 32,000  Level FlightAware
02:35AM 59.9760 58.9210 296° West 424 488 32,000  Level FlightAware
02:36AM 60.0100 58.7800 296° West 424 488 32,000  Level FlightAware
02:37AM 60.0460 58.6330 296° West 426 490 32,000  Level FlightAware
02:37AM 60.0780 58.4970 295° West 428 493 32,000  Level FlightAware
02:38AM 60.0860 58.4140 281° West 438 504 32,000  Level FlightAware
02:38AM 60.0840 58.3020 268° West 447 514 32,000  Level FlightAware
02:39AM 60.0780 58.1320 266° West 446 513 32,000  Level FlightAware
02:39AM 60.0730 57.9760 266° West 446 513 32,000  Level FlightAware
02:40AM 60.0680 57.8400 266° West 444 511 32,000  Level FlightAware
02:41AM 60.0620 57.6670 266° West 442 509 32,000  Level FlightAware
02:41AM 60.0560 57.4800 266° West 440 506 32,000  Level FlightAware
02:42AM 60.0500 57.3370 265° West 440 506 32,000  Level FlightAware
02:42AM 60.0460 57.2290 266° West 440 506 32,000  Level FlightAware
02:43AM 60.0390 57.0430 266° West 440 506 32,000  Level FlightAware
02:44AM 60.0350 56.9300 266° West 437 503 32,000  Level FlightAware
02:44AM 60.0280 56.7610 265° West 435 501 32,000  Level FlightAware
02:45AM 60.0210 56.6070 265° West 434 499 32,000  Level FlightAware
02:46AM 60.0160 56.4800 266° West 435 501 32,000  Level FlightAware
02:46AM 60.0090 56.3290 265° West 436 502 32,000  Level FlightAware
02:47AM 60.0040 56.2010 266° West 434 499 32,000  Level FlightAware
02:47AM 59.9980 56.0700 265° West 434 499 32,000  Level FlightAware
02:48AM 59.9910 55.9250 265° West 436 502 32,000  Level FlightAware
02:48AM 59.9840 55.7800 265° West 437 503 32,000  Level FlightAware
02:49AM 59.9770 55.6320 265° West 437 503 32,000  Level FlightAware
02:50AM 59.9700 55.5060 264° West 437 503 32,000  Level FlightAware
02:50AM 59.9630 55.3660 264° West 436 502 32,000  Level FlightAware
02:51AM 59.9560 55.2300 264° West 436 502 32,000  Level FlightAware
02:51AM 59.9490 55.0960 264° West 436 502 32,000  Level FlightAware
02:52AM 59.9400 54.9450 263° West 439 505 32,000  Level FlightAware
02:53AM 59.9320 54.7870 264° West 441 507 32,000  Level FlightAware
02:53AM 59.9220 54.6190 263° West 443 510 32,000  Level FlightAware
02:54AM 59.9140 54.4870 263° West 444 511 32,000  Level FlightAware
02:54AM 59.9060 54.3500 263° West 446 513 32,000  Level FlightAware
02:55AM 59.8980 54.2160 263° West 446 513 32,000  Level FlightAware
02:56AM 59.8890 54.0640 263° West 447 514 32,000  Level FlightAware
02:56AM 59.8780 53.8860 263° West 447 514 32,000  Level FlightAware
02:57AM 59.8690 53.7540 262° West 447 514 32,000  Level FlightAware
02:57AM 59.8600 53.6120 263° West 448 516 32,000  Level FlightAware
02:58AM 59.8500 53.4630 262° West 447 514 32,000  Level FlightAware
02:59AM 59.8410 53.3220 263° West 449 517 32,000  Level FlightAware
02:59AM 59.8310 53.1850 262° West 450 518 32,000  Level FlightAware
03:00AM 59.8180 53.0000 262° West 451 519 32,000  Level FlightAware
03:01AM 59.8090 52.8750 262° West 451 519 32,000  Level FlightAware
03:01AM 59.8000 52.7490 262° West 451 519 32,000  Level FlightAware
03:02AM 59.7920 52.6230 263° West 451 519 32,000  Level FlightAware
03:02AM 59.7760 52.4120 262° West 452 520 32,000  Level FlightAware
03:03AM 59.7650 52.2700 261° West 453 521 32,000  Level FlightAware
03:04AM 59.7520 52.1100 261° West 454 522 32,000  Level FlightAware
03:04AM 59.7390 51.9620 260° West 455 524 32,000  Level FlightAware
03:05AM 59.7280 51.8500 259° West 455 524 32,000  Level FlightAware
03:05AM 59.7090 51.6750 258° West 456 525 32,000  Level FlightAware
03:06AM 59.6950 51.5440 258° West 456 525 32,000  Level FlightAware
03:06AM 59.6820 51.4120 259° West 456 525 32,000  Level FlightAware
03:07AM 59.6660 51.2580 258° West 455 524 32,000  Level FlightAware
03:08AM 59.6490 51.0950 258° West 454 522 32,000  Level FlightAware
03:08AM 59.6350 50.9660 258° West 455 524 32,000  Level FlightAware
03:09AM 59.6230 50.8520 258° West 454 522 32,000  Level FlightAware
03:09AM 59.6050 50.6900 258° West 454 522 32,000  Level FlightAware
03:10AM 59.5910 50.5660 257° West 454 522 32,000  Level FlightAware
03:11AM 59.5640 50.3320 257° West 453 521 32,000  Level FlightAware
03:12AM 59.5530 50.2300 258° West 455 524 32,000  Level FlightAware
03:12AM 59.5390 50.1130 257° West 455 524 32,000  Level FlightAware
03:13AM 59.5240 49.9860 257° West 455 524 32,000  Level FlightAware
03:13AM 59.5100 49.8620 258° West 455 524 32,000  Level FlightAware
03:14AM 59.4950 49.7380 257° West 455 524 32,000  Level FlightAware
03:14AM 59.4810 49.6150 257° West 455 524 32,000  Level FlightAware
03:15AM 59.4660 49.4910 257° West 455 524 32,000  Level FlightAware
03:16AM 59.4520 49.3680 257° West 455 524 32,000  Level FlightAware
03:16AM 59.4370 49.2440 257° West 455 524 32,000  Level FlightAware
03:17AM 59.4230 49.1210 257° West 455 524 32,000  Level FlightAware
03:17AM 59.4080 48.9970 257° West 455 524 32,000  Level FlightAware
03:18AM 59.3940 48.8740 257° West 455 524 32,000  Level FlightAware
03:19AM 59.3790 48.7470 257° West 455 524 32,000  Level FlightAware
03:19AM 59.3640 48.6240 257° West 455 524 32,000  Level FlightAware
03:20AM 59.3500 48.5010 257° West 455 524 32,000  Level FlightAware
03:21AM 59.3350 48.3780 257° West 455 524 32,000  Level FlightAware
03:21AM 59.3250 48.2930 264° West 455 524 32,000  Level FlightAware
03:21AM 59.3250 48.2930 265° West 455 524 32,000  Level FlightAware
03:23AM 59.3154 47.9259 265° West  Level Estimated
03:24AM 59.3051 47.7000 265° West  Level Estimated
03:25AM 59.2943 47.4743 265° West  Level Estimated
03:26AM 59.2832 47.2487 265° West  Level Estimated
03:27AM 59.2716 47.0233 264° West  Level Estimated
03:28AM 59.2597 46.7980 264° West  Level Estimated
03:30AM 59.2290 46.3575 265° West  Level Estimated
03:31AM 58.9130 45.4750 265° West 455 524 32,000  Level FlightAware
03:32AM 59.2025 45.9082 265° West  Level Estimated
03:32AM 58.8890 45.3210 253° West 455 524 32,000  Level FlightAware
03:33AM 58.8700 45.2000 253° West 455 524 32,000  Level FlightAware
03:33AM 58.8440 45.0390 253° West 453 521 32,000  Level FlightAware
03:34AM 58.8200 44.8920 253° West 453 521 32,000  Level FlightAware
03:34AM 58.8010 44.7730 253° West 453 521 32,000  Level FlightAware
03:35AM 58.7750 44.6130 253° West 453 521 32,000  Level FlightAware
03:36AM 58.7470 44.4410 253° West 453 521 32,000  Level FlightAware
03:36AM 58.7240 44.3020 252° West 452 520 32,000  Level FlightAware
03:37AM 58.7030 44.1770 252° West 452 520 32,000  Level FlightAware
03:38AM 58.6820 44.0510 252° West 451 519 32,000  Level FlightAware
03:38AM 58.6560 43.9000 252° West 451 519 32,000 180 Level FlightAware
03:39AM 58.6290 43.7430 252° West 454 522 32,300 1,260 Climbing FlightAware
03:40AM 58.6060 43.6070 252° West 447 514 33,600 1,500 Climbing FlightAware
03:40AM 58.5850 43.4880 251° West 447 514 34,000 360 Climbing FlightAware
03:41AM 58.5640 43.3700 251° West 448 516 34,000  Level FlightAware
03:41AM 58.5370 43.2160 251° West 447 514 34,000  Level FlightAware
03:42AM 58.5140 43.0840 252° West 448 516 34,000  Level FlightAware
03:42AM 58.4920 42.9600 251° West 449 517 34,000  Level FlightAware
03:43AM 58.4670 42.8230 251° West 447 514 34,000  Level FlightAware
03:44AM 58.4450 42.6990 251° West 445 512 34,000  Level FlightAware
03:44AM 58.4170 42.5500 250° West 443 510 34,000  Level FlightAware
03:45AM 58.3930 42.4160 251° West 442 509 34,000  Level FlightAware
03:46AM 58.3680 42.2810 251° West 442 509 34,000  Level FlightAware
03:46AM 58.3420 42.1430 250° West 441 507 34,000  Level FlightAware
03:47AM 58.3150 41.9980 251° West 440 506 34,000  Level FlightAware
03:48AM 58.2750 41.7840 251° West 439 505 34,000  Level FlightAware
03:48AM 58.2540 41.6780 249° West 440 506 34,000  Level FlightAware
03:49AM 58.2310 41.5590 250° West 440 506 34,000  Level FlightAware
03:50AM 58.1940 41.3690 250° West 440 506 34,000  Level FlightAware
03:50AM 58.1660 41.2470 247° West 439 505 34,000  Level FlightAware
03:51AM 58.1340 41.1060 247° West 439 505 34,000  Level FlightAware
03:51AM 58.1090 41.0000 246° West 440 506 34,000  Level FlightAware
03:52AM 58.0820 40.8790 247° West 441 507 34,000  Level FlightAware
03:52AM 58.0540 40.7570 247° West 442 509 34,000  Level FlightAware
03:53AM 58.0210 40.6130 247° West 442 509 34,000  Level FlightAware
03:54AM 57.9980 40.5140 246° West 442 509 34,000  Level FlightAware
03:54AM 57.9670 40.3830 246° West 443 510 34,000  Level FlightAware
03:55AM 57.9380 40.2590 246° West 444 511 34,000  Level FlightAware
03:55AM 57.9050 40.1190 246° West 444 511 34,000  Level FlightAware
03:56AM 57.8800 40.0130 246° West 444 511 34,000  Level FlightAware
03:57AM 57.8500 39.8910 245° Southwest 445 512 34,000  Level FlightAware
03:57AM 57.8160 39.7510 246° West 446 513 34,000  Level FlightAware
03:58AM 57.7910 39.6480 246° West 446 513 34,000  Level FlightAware
03:58AM 57.7610 39.5220 246° West 445 512 34,000  Level FlightAware
03:59AM 57.7270 39.3830 245° Southwest 445 512 34,000  Level FlightAware
03:59AM 57.7010 39.2780 245° Southwest 443 510 34,000  Level FlightAware
04:00AM 57.6710 39.1570 245° Southwest 445 512 34,000  Level FlightAware
04:01AM 57.6370 39.0190 245° Southwest 444 511 34,000  Level FlightAware
04:01AM 57.6110 38.9180 244° Southwest 442 509 34,000  Level FlightAware
04:02AM 57.5800 38.7960 245° Southwest 442 509 34,000  Level FlightAware
04:02AM 57.5500 38.6760 245° Southwest 443 510 34,000  Level FlightAware
04:03AM 57.5190 38.5540 245° Southwest 442 509 34,000  Level FlightAware
04:04AM 57.4880 38.4350 244° Southwest 439 505 34,000  Level FlightAware
04:04AM 57.4580 38.3170 245° Southwest 435 501 34,000  Level FlightAware
04:05AM 57.4280 38.1990 245° Southwest 433 498 34,000  Level FlightAware
04:05AM 57.3930 38.0650 244° Southwest 431 496 34,000  Level FlightAware
04:06AM 57.3670 37.9670 244° Southwest 431 496 34,000  Level FlightAware
04:06AM 57.3360 37.8500 244° Southwest 431 496 34,000  Level FlightAware
04:07AM 57.3060 37.7340 244° Southwest 431 496 34,000  Level FlightAware
04:08AM 57.2720 37.6050 244° Southwest 432 497 34,000  Level FlightAware
04:08AM 57.2440 37.5030 243° Southwest 433 498 34,000  Level FlightAware
04:09AM 57.2130 37.3880 244° Southwest 433 498 34,000  Level FlightAware
04:09AM 57.1780 37.2550 244° Southwest 434 499 34,000  Level FlightAware
04:10AM 57.1510 37.1570 243° Southwest 434 499 34,000  Level FlightAware
04:11AM 57.1220 37.0510 243° Southwest 434 499 34,000  Level FlightAware
04:11AM 57.0880 36.9270 243° Southwest 434 499 34,000  Level FlightAware
04:12AM 57.0540 36.8010 244° Southwest 435 501 34,000  Level FlightAware
04:12AM 57.0190 36.6770 243° Southwest 435 501 34,000  Level FlightAware
04:13AM 56.9850 36.5550 243° Southwest 435 501 34,000  Level FlightAware
04:14AM 56.9620 36.4710 243° Southwest 434 499 34,000  Level FlightAware
04:14AM 56.9300 36.3590 242° Southwest 435 501 34,000  Level FlightAware
04:15AM 56.9020 36.2580 243° Southwest 436 502 34,000  Level FlightAware
04:15AM 56.8680 36.1390 242° Southwest 436 502 34,000  Level FlightAware
04:16AM 56.8280 35.9980 243° Southwest 436 502 34,000  Level FlightAware
04:17AM 56.7950 35.8820 243° Southwest 437 503 34,000  Level FlightAware
04:17AM 56.7600 35.7610 242° Southwest 438 504 34,000  Level FlightAware
04:18AM 56.7250 35.6390 242° Southwest 439 505 34,000  Level FlightAware
04:18AM 56.6940 35.5330 242° Southwest 441 507 34,000  Level FlightAware
04:19AM 56.6570 35.4080 242° Southwest 442 509 34,000  Level FlightAware
04:20AM 56.6120 35.2530 242° Southwest 444 511 34,000  Level FlightAware
04:20AM 56.5800 35.1450 242° Southwest 446 513 34,000  Level FlightAware
04:21AM 56.5440 35.0260 241° Southwest 446 513 34,000  Level FlightAware
04:22AM 56.5020 34.8860 242° Southwest 445 512 34,000  Level FlightAware
04:22AM 56.4720 34.7920 240° Southwest 444 511 34,000  Level FlightAware
04:23AM 56.4300 34.6640 239° Southwest 443 510 34,000  Level FlightAware
04:23AM 56.3930 34.5480 240° Southwest 442 509 34,000  Level FlightAware
04:24AM 56.3540 34.4270 240° Southwest 441 507 34,000  Level FlightAware
04:25AM 56.3060 34.2770 240° Southwest 442 509 34,000  Level FlightAware
04:25AM 56.2700 34.1680 239° Southwest 442 509 34,000  Level FlightAware
04:26AM 56.2280 34.0410 239° Southwest 442 509 34,000  Level FlightAware
04:27AM 56.1910 33.9330 238° Southwest 442 509 34,000  Level FlightAware
04:27AM 56.1550 33.8250 239° Southwest 443 510 34,000  Level FlightAware
04:28AM 56.1180 33.7150 239° Southwest 443 510 34,000  Level FlightAware
04:28AM 56.0800 33.6030 239° Southwest 443 510 34,000  Level FlightAware
04:29AM 56.0430 33.4930 239° Southwest 443 510 34,000  Level FlightAware
04:29AM 56.0070 33.3890 238° Southwest 443 510 34,000  Level FlightAware
04:30AM 55.9690 33.2760 239° Southwest 444 511 34,000  Level FlightAware
04:31AM 55.9320 33.1650 239° Southwest 444 511 34,000  Level FlightAware
04:31AM 55.8970 33.0650 238° Southwest 442 509 34,000  Level FlightAware
04:32AM 55.8610 32.9500 241° Southwest 443 510 34,000  Level FlightAware
04:32AM 55.8400 32.8300 253° West 446 513 34,000  Level FlightAware
04:33AM 55.8230 32.7000 257° West 448 516 34,000  Level FlightAware
04:34AM 55.8080 32.5770 258° West 447 514 34,000  Level FlightAware
04:34AM 55.7890 32.4320 257° West 447 514 34,000  Level FlightAware
04:35AM 55.7700 32.2890 257° West 449 517 34,000  Level FlightAware
04:35AM 55.7550 32.1770 257° West 449 517 34,000  Level FlightAware
04:36AM 55.7380 32.0590 256° West 449 517 34,000  Level FlightAware
04:37AM 55.7230 31.9490 256° West 449 517 34,000  Level FlightAware
04:37AM 55.7070 31.8400 255° West 449 517 34,000  Level FlightAware
04:38AM 55.6920 31.7300 256° West 449 517 34,000  Level FlightAware
04:38AM 55.6770 31.6210 256° West 449 517 34,000  Level FlightAware
04:39AM 55.7330 32.0130 76° East 34,000  Level FlightAware
04:40AM 55.6440 31.3720 256° West 34,000  Level FlightAware
04:40AM 55.6130 31.1580 256° West 453 521 34,000  Level FlightAware
04:41AM 55.5900 30.9960 256° West 455 524 34,000  Level FlightAware
04:41AM 55.5700 30.8610 255° West 456 525 34,000  Level FlightAware
04:42AM 55.5480 30.7180 255° West 455 524 34,000  Level FlightAware
04:43AM 55.5280 30.5960 254° West 455 524 34,000  Level FlightAware
04:43AM 55.5100 30.4870 254° West 455 524 34,000  Level FlightAware
04:44AM 55.4920 30.3770 254° West 455 524 34,000  Level FlightAware
04:45AM 55.4740 30.2680 254° West 455 524 34,000  Level FlightAware
04:45AM 55.4460 30.0630 257° West 458 527 34,000  Level FlightAware
04:46AM 55.4170 29.8760 255° West 459 528 34,000  Level FlightAware
04:47AM 55.3980 29.7520 255° West 458 527 34,000  Level FlightAware
04:47AM 55.3720 29.5900 254° West 457 526 34,000  Level FlightAware
04:48AM 55.3500 29.4470 255° West 457 526 34,000  Level FlightAware
04:49AM 55.3310 29.3310 254° West 457 526 34,000  Level FlightAware
04:49AM 55.3100 29.2030 254° West 457 526 34,000  Level FlightAware
04:50AM 55.2910 29.0870 254° West 456 525 34,000  Level FlightAware
04:50AM 55.2710 28.9640 254° West 455 524 34,000  Level FlightAware
04:51AM 55.2510 28.8410 254° West 456 525 34,000  Level FlightAware
04:51AM 55.2300 28.7180 253° West 456 525 34,000  Level FlightAware
04:52AM 55.2100 28.5930 254° West 455 524 34,000  Level FlightAware
04:53AM 55.1910 28.4850 253° West 456 525 34,000  Level FlightAware
04:53AM 55.1680 28.3460 254° West 456 525 34,000  Level FlightAware
04:54AM 55.1470 28.2250 253° West 457 526 34,000  Level FlightAware
04:54AM 55.1250 28.0940 254° West 459 528 34,000  Level FlightAware
04:55AM 55.1030 27.9670 253° West 459 528 34,000  Level FlightAware
04:56AM 55.0790 27.8330 253° West 459 528 34,000  Level FlightAware
04:56AM 55.0560 27.6980 253° West 460 529 34,000  Level FlightAware
04:57AM 55.0350 27.5840 252° West 459 528 34,000  Level FlightAware
04:57AM 55.0120 27.4520 253° West 458 527 34,000  Level FlightAware
04:58AM 54.9890 27.3220 253° West 458 527 34,000  Level FlightAware
04:59AM 54.9660 27.1970 252° West 457 526 34,000  Level FlightAware
04:59AM 54.9430 27.0700 253° West 458 527 34,000  Level FlightAware
05:00AM 54.9230 26.9580 253° West 457 526 34,000  Level FlightAware
05:00AM 54.9000 26.8320 252° West 457 526 34,000  Level FlightAware
05:01AM 54.8770 26.7090 252° West 457 526 34,000  Level FlightAware
05:02AM 54.8550 26.5900 252° West 458 527 34,000  Level FlightAware
05:02AM 54.8417 26.5214 251° West 459 528 34,000  Level FlightAware ADS-B (EPSY / SZY)
05:03AM 54.8102 26.3536 252° West 458 527 34,000  Level FlightAware ADS-B (EPSY / SZY)
05:03AM 54.7931 26.2640 252° West 458 527 34,000  Level FlightAware ADS-B (EPSY / SZY)
05:04AM 54.7678 26.1309 252° West 458 527 34,000  Level FlightAware ADS-B (EPSY / SZY)
05:04AM 54.7434 26.0038 252° West 459 528 34,000  Level FlightAware ADS-B (EPSY / SZY)
05:05AM 54.7178 25.8719 252° West 460 529 34,000  Level FlightAware ADS-B (EPSY / SZY)
05:06AM 54.6917 25.7377 251° West 459 528 34,000  Level FlightAware ADS-B (EPSY / SZY)
05:06AM 54.6669 25.6141 251° West 458 527 34,000  Level FlightAware ADS-B (EPSY / SZY)
05:07AM 54.6450 25.5070 251° West 457 526 34,000  Level FlightAware
05:07AM 54.6387 25.4765 250° West 458 527 34,000  Level FlightAware ADS-B (EPSY / SZY)
05:07AM 54.6148 25.3595 251° West 458 527 34,000  Level FlightAware ADS-B (EPSY / SZY)
05:08AM 54.5924 25.2508 250° West 457 526 34,000  Level FlightAware ADS-B (EPSY / SZY)
05:09AM 54.5710 25.1470 250° West 456 525 34,000  Level FlightAware
05:09AM 54.5637 25.1120 250° West 456 525 34,000  Level FlightAware ADS-B (EPSY / SZY)
05:09AM 54.5419 25.0073 250° West 457 526 34,000  Level FlightAware ADS-B (EPSY / SZY)
05:10AM 54.5190 24.8990 250° West 457 526 34,000  Level FlightAware
05:10AM 54.5089 24.8497 251° West 457 526 34,000  Level FlightAware ADS-B (EPSY / SZY)
05:10AM 54.4876 24.7488 250° West 457 526 34,000  Level FlightAware ADS-B (EPSY / SZY)
05:11AM 54.4560 24.5996 250° West 459 528 34,000  Level FlightAware ADS-B (EPSY / SZY)
05:12AM 54.4361 24.5066 250° West 459 528 34,000  Level FlightAware ADS-B (EPSY / SZY)
05:12AM 54.4122 24.3956 250° West 458 527 34,000  Level FlightAware ADS-B (EPSY / SZY)
05:13AM 54.3881 24.2834 250° West 458 527 34,000  Level FlightAware ADS-B (EPSY / SZY)
05:13AM 54.3660 24.1817 250° West 458 527 34,000  Level FlightAware ADS-B (EPSY / SZY)
05:14AM 54.3435 24.0786 249° West 458 527 34,000  Level FlightAware ADS-B (EPSY / SZY)
05:14AM 54.3228 23.9840 249° West 459 528 34,000  Level FlightAware ADS-B (EPSY / SZY)
05:15AM 54.2999 23.8799 249° West 459 528 34,000  Level FlightAware ADS-B (EPSY / SZY)
05:15AM 54.2765 23.7740 249° West 459 528 34,000  Level FlightAware ADS-B (EPSY / SZY)
05:16AM 54.2536 23.6711 249° West 460 529 34,000  Level FlightAware ADS-B (EPSY / SZY)
05:16AM 54.2292 23.5576 250° West 462 532 34,000  Level FlightAware ADS-B (EPSY / SZY)
05:17AM 54.2096 23.4557 252° West 462 532 34,000  Level FlightAware ADS-B (EPSY / SZY)
05:17AM 54.1890 23.3503 252° West 462 532 34,000  Level FlightAware ADS-B (EPSY / SZY)
05:18AM 54.1653 23.2315 251° West 462 532 34,000  Level FlightAware ADS-B (EPSY / SZY)
05:18AM 54.1444 23.1289 251° West 463 533 34,000  Level FlightAware ADS-B (EPSY / SZY)
05:19AM 54.1184 23.0020 251° West 462 532 34,000  Level FlightAware ADS-B (EPSY / SZY)
05:19AM 54.0967 22.8967 251° West 462 532 34,000  Level FlightAware ADS-B (EPSY / SZY)
05:20AM 54.0612 22.7251 251° West 461 531 34,000  Level FlightAware ADS-B (EPSY / SZY)
05:21AM 54.0406 22.6261 251° West 462 532 34,000  Level FlightAware ADS-B (EPSY / SZY)
05:21AM 54.0150 22.5030 251° West 461 531 34,000  Level FlightAware
05:22AM 54.0074 22.4676 250° West 461 531 34,000  Level FlightAware ADS-B (EPSY / SZY)
05:22AM 53.9791 22.3330 250° West 460 529 34,000  Level FlightAware ADS-B (EPSY / SZY)
05:23AM 53.9548 22.2185 250° West 460 529 34,000  Level FlightAware ADS-B (EPSY / SZY)
05:23AM 53.9264 22.0863 250° West 461 531 34,000  Level FlightAware ADS-B (EPSY / SZY)
05:24AM 53.8985 21.9562 250° West 461 531 34,000  Level FlightAware ADS-B (EPSY / SZY)
05:25AM 53.8773 21.8578 250° West 461 531 34,000  Level FlightAware ADS-B (EPSY / SZY)
05:25AM 53.8459 21.7131 250° West 463 533 34,000  Level FlightAware ADS-B (EPSY / SZY)
05:26AM 53.8233 21.6097 250° West 464 534 34,000  Level FlightAware ADS-B (EPSY / SZY)
05:27AM 53.7887 21.4526 250° West 465 535 34,000  Level FlightAware ADS-B (EPSY / SZY)
05:27AM 53.7667 21.3532 249° West 466 536 34,000  Level FlightAware ADS-B (EPSY / SZY)
05:28AM 53.7447 21.2539 249° West 465 535 34,000  Level FlightAware ADS-B (EPSY / SZY)
05:28AM 53.7219 21.1521 249° West 464 534 34,000  Level FlightAware ADS-B (EPSY / SZY)
05:29AM 53.6968 21.0403 249° West 462 532 34,000  Level FlightAware ADS-B (EPSY / SZY)
05:29AM 53.6712 20.9272 249° West 460 529 34,000  Level FlightAware ADS-B (EPSY / SZY)
05:30AM 53.6392 20.7865 249° West 462 532 34,000  Level FlightAware ADS-B (EPSY / SZY)
05:30AM 53.6174 20.6911 249° West 462 532 34,000  Level FlightAware ADS-B (EPSY / SZY)
05:31AM 53.5928 20.5838 249° West 463 533 34,000  Level FlightAware ADS-B (EPSY / SZY)
05:31AM 53.5667 20.4709 249° West 463 533 34,000  Level FlightAware ADS-B (EPSY / SZY)
05:32AM 53.5437 20.3714 249° West 463 533 34,000  Level FlightAware ADS-B (EPSY / SZY)
05:32AM 53.5180 20.2611 249° West 464 534 34,000  Level FlightAware ADS-B (EPSY / SZY)
05:33AM 53.4941 20.1592 249° West 464 534 34,000  Level FlightAware ADS-B (EPSY / SZY)
05:33AM 53.4705 20.0590 248° West 467 537 34,000  Level FlightAware ADS-B (EPSY / SZY)
05:34AM 53.4465 19.9575 248° West 468 539 34,000  Level FlightAware ADS-B (EPSY / SZY)
05:35AM 53.4137 19.8197 248° West 469 540 34,000  Level FlightAware ADS-B (EPSY / SZY)
05:35AM 53.3887 19.7147 248° West 468 539 34,000  Level FlightAware ADS-B (EPSY / SZY)
05:36AM 53.3658 19.6195 248° West 467 537 34,000  Level FlightAware ADS-B (EPSY / SZY)
05:36AM 53.3369 19.4997 248° West 467 537 34,000  Level FlightAware ADS-B (EPSY / SZY)
05:37AM 53.3118 19.3966 248° West 464 534 34,000  Level FlightAware ADS-B (EPSY / SZY)
05:37AM 53.2831 19.2785 248° West 462 532 34,000  Level FlightAware ADS-B (EPSY / SZY)
05:38AM 53.2581 19.1768 248° West 462 532 34,000  Level FlightAware ADS-B (EPSY / SZY)
05:38AM 53.2337 19.0776 248° West 462 532 34,000  Level FlightAware ADS-B (EPSY / SZY)
05:39AM 53.2096 18.9802 248° West 461 531 34,000  Level FlightAware ADS-B (EPSY / SZY)
05:40AM 53.1778 18.8521 248° West 460 529 34,000  Level FlightAware ADS-B (EPSY / SZY)
05:40AM 53.1490 18.7371 247° West 460 529 34,000  Level FlightAware ADS-B (EPSY / SZY)
05:41AM 53.1240 18.6360 248° West 459 528 34,000  Level FlightAware
05:41AM 53.1168 18.6091 246° West 460 529 34,000  Level FlightAware ADS-B (EPSY / SZY)
05:42AM 53.0817 18.4704 247° West 457 526 34,000  Level FlightAware ADS-B (EPSY / SZY)
05:42AM 53.0569 18.3728 247° West 456 525 34,000  Level FlightAware ADS-B (EPSY / SZY)
05:43AM 53.0070 18.1780 247° West 455 524 34,000  Level FlightAware
05:44AM 52.9790 18.0680 247° West 454 522 34,000  Level FlightAware
05:44AM 52.9490 17.9520 247° West 456 525 34,000  Level FlightAware
05:45AM 52.9210 17.8450 247° West 456 525 34,000  Level FlightAware
05:45AM 52.8910 17.7300 247° West 456 525 34,000  Level FlightAware
05:46AM 52.8620 17.6210 246° West 454 522 34,000  Level FlightAware
05:47AM 52.8330 17.5100 247° West 454 522 34,000  Level FlightAware
05:47AM 52.8020 17.3920 247° West 453 521 34,000  Level FlightAware
05:48AM 52.7750 17.2920 246° West 452 520 34,000  Level FlightAware
05:48AM 52.7440 17.1750 246° West 449 517 34,000  Level FlightAware
05:49AM 52.7140 17.0670 245° Southwest 447 514 34,000  Level FlightAware
05:49AM 52.6870 16.9640 247° West 447 514 34,000  Level FlightAware
05:50AM 52.6560 16.8520 246° West 449 517 34,000  Level FlightAware
05:51AM 52.6260 16.7410 246° West 449 517 34,000  Level FlightAware
05:51AM 52.5950 16.6300 245° Southwest 448 516 34,000  Level FlightAware
05:52AM 52.5670 16.5290 246° West 447 514 34,000  Level FlightAware
05:52AM 52.5370 16.4190 246° West 448 516 34,000  Level FlightAware
05:53AM 52.5060 16.3080 245° Southwest 448 516 34,000  Level FlightAware
05:54AM 52.4750 16.1950 246° West 445 512 34,000  Level FlightAware
05:54AM 52.4480 16.1010 245° Southwest 444 511 34,000  Level FlightAware
05:55AM 52.4160 15.9890 245° Southwest 442 509 34,000  Level FlightAware
05:55AM 52.3850 15.8780 245° Southwest 441 507 34,000  Level FlightAware
05:56AM 52.3570 15.7800 245° Southwest 441 507 34,000  Level FlightAware
05:56AM 52.3250 15.6680 245° Southwest 436 502 34,000  Level FlightAware
05:57AM 52.2980 15.5720 245° Southwest 437 503 34,000  Level FlightAware
05:58AM 52.2660 15.4640 244° Southwest 436 502 34,000  Level FlightAware
05:58AM 52.2350 15.3560 245° Southwest 437 503 34,000  Level FlightAware
05:59AM 52.2070 15.2590 245° Southwest 437 503 34,000  Level FlightAware
05:59AM 52.1750 15.1490 245° Southwest 438 504 34,000  Level FlightAware
06:00AM 52.1420 15.0400 244° Southwest 440 506 34,000  Level FlightAware
06:00AM 52.1150 14.9470 245° Southwest 439 505 34,000  Level FlightAware
06:01AM 52.0830 14.8390 244° Southwest 436 502 34,000  Level FlightAware
06:02AM 52.0530 14.7370 244° Southwest 431 496 34,000  Level FlightAware
06:02AM 52.0260 14.6380 246° West 431 496 34,000  Level FlightAware
06:03AM 52.0000 14.5400 247° West 430 495 34,000  Level FlightAware
06:03AM 51.9740 14.4460 246° West 431 496 34,000  Level FlightAware
06:04AM 51.9410 14.3280 246° West 432 497 34,000  Level FlightAware
06:05AM 51.9130 14.2250 246° West 432 497 34,000  Level FlightAware
06:05AM 51.8830 14.1170 246° West 431 496 34,000  Level FlightAware
06:06AM 51.8560 14.0210 246° West 432 497 34,000  Level FlightAware
06:06AM 51.8250 13.9120 245° Southwest 431 496 34,000  Level FlightAware
06:07AM 51.7990 13.8180 246° West 431 496 34,000  Level FlightAware
06:08AM 51.7680 13.7090 245° Southwest 430 495 34,000  Level FlightAware
06:08AM 51.7410 13.6140 245° Southwest 430 495 34,000  Level FlightAware
06:09AM 51.7060 13.4930 245° Southwest 429 494 34,000  Level FlightAware
06:09AM 51.6750 13.3840 245° Southwest 429 494 34,000  Level FlightAware
06:10AM 51.6460 13.2820 245° Southwest 429 494 34,000  Level FlightAware
06:10AM 51.6220 13.2000 245° Southwest 430 495 34,000  Level FlightAware
06:11AM 51.5920 13.0980 245° Southwest 429 494 34,000  Level FlightAware
06:12AM 51.5590 12.9870 244° Southwest 427 491 34,000  Level FlightAware
06:12AM 51.5280 12.8810 245° Southwest 427 491 34,000  Level FlightAware
06:13AM 51.5010 12.7880 245° Southwest 428 493 34,000 -120 Level FlightAware
06:13AM 51.4740 12.6970 245° Southwest 426 490 33,900 -600 Descending FlightAware
06:14AM 51.4480 12.6070 245° Southwest 426 490 33,400 -1,020 Descending FlightAware
06:14AM 51.4160 12.5100 242° Southwest 423 487 32,800 -1,020 Descending FlightAware
06:15AM 51.3780 12.4050 240° Southwest 420 483 32,200 -1,200 Descending FlightAware
06:16AM 51.3380 12.2950 240° Southwest 423 487 31,200 -1,440 Descending FlightAware
06:16AM 51.3030 12.1980 240° Southwest 427 491 30,400 -1,020 Descending FlightAware
06:17AM 51.2680 12.1010 240° Southwest 434 499 30,000 -420 Descending FlightAware
06:18AM 51.2360 12.0170 239° Southwest 434 499 30,000  Level FlightAware
06:18AM 51.1990 11.9110 241° Southwest 433 498 30,000  Level FlightAware
06:19AM 51.1660 11.8090 243° Southwest 432 497 30,000 -960 Level FlightAware
06:19AM 51.1320 11.7050 243° Southwest 430 495 28,900 -2,400 Descending FlightAware
06:20AM 51.1020 11.6130 243° Southwest 433 498 27,300 -2,640 Descending FlightAware
06:20AM 51.0720 11.5200 243° Southwest 430 495 26,000 -2,280 Descending FlightAware
06:21AM 51.0400 11.4230 242° Southwest 426 490 24,700 -1,860 Descending FlightAware
06:22AM 51.0070 11.3250 242° Southwest 407 468 23,800 -1,260 Descending FlightAware
06:22AM 50.9820 11.2470 243° Southwest 387 445 23,300 -1,560 Descending FlightAware
06:23AM 50.9500 11.1540 241° Southwest 379 436 22,100 -1,080 Descending FlightAware
06:23AM 50.9190 11.0590 243° Southwest 381 438 22,000 -120 Descending FlightAware
06:24AM 50.8900 10.9750 241° Southwest 380 437 22,000  Level FlightAware
06:25AM 50.8630 10.8930 242° Southwest 379 436 22,000  Level FlightAware
06:25AM 50.8330 10.8030 242° Southwest 378 435 22,000  Level FlightAware
06:26AM 50.8070 10.7290 241° Southwest 381 438 22,000  Level FlightAware
06:26AM 50.7730 10.6290 242° Southwest 378 435 22,000 -120 Level FlightAware
06:27AM 50.7470 10.5510 242° Southwest 374 430 21,900 -1,200 Descending FlightAware
06:28AM 50.7170 10.4630 242° Southwest 373 429 20,600 -2,340 Descending FlightAware
06:28AM 50.6870 10.3750 242° Southwest 372 428 19,100 -2,460 Descending FlightAware
06:29AM 50.6580 10.2920 241° Southwest 376 433 17,700 -1,860 Descending FlightAware
06:29AM 50.6330 10.2200 241° Southwest 361 415 17,100 -1,140 Descending FlightAware
06:30AM 50.6070 10.1450 241° Southwest 342 394 16,500 -1,320 Descending FlightAware
06:30AM 50.5800 10.0660 242° Southwest 328 377 15,600 -1,920 Descending FlightAware
06:31AM 50.5530 9.9920 240° Southwest 332 382 14,200 -2,040 Descending FlightAware
06:32AM 50.5350 9.9240 247° West 329 379 13,300 -1,800 Descending FlightAware
06:32AM 50.5190 9.8340 254° West 326 375 12,100 -1,740 Descending FlightAware
06:33AM 50.5060 9.7620 254° West 322 371 11,300 -1,020 Descending FlightAware
06:33AM 50.4930 9.6870 255° West 302 348 11,000 -300 Descending FlightAware
06:34AM 50.4800 9.6110 255° West 305 351 11,000  Level FlightAware
06:34AM 50.4660 9.5350 254° West 307 353 11,000 -180 Level FlightAware
06:35AM 50.4460 9.4540 249° West 303 349 10,800 -600 Descending FlightAware
06:35AM 50.4230 9.4270 217° Southwest 298 343 10,400 -1,560 Descending FlightAware
06:36AM 50.4050 9.4120 208° Southwest 308 354 9,900 -1,380 Descending FlightAware
06:36AM 50.3800 9.3910 208° Southwest 296 341 9,600 -900 Descending FlightAware
06:36AM 50.3570 9.3720 208° Southwest 293 337 9,300 -1,080 Descending FlightAware
06:37AM 50.3300 9.3630 192° South 275 316 8,900 -1,200 Descending FlightAware
06:37AM 50.3030 9.3640 179° South 267 307 8,500 -960 Descending FlightAware
06:37AM 50.2730 9.3660 178° South 253 291 8,200 -840 Descending FlightAware
06:38AM 50.2560 9.3660 180° South 251 289 8,000 -360 Descending FlightAware
06:38AM 50.2310 9.3530 198° South 240 276 8,000  Level FlightAware
06:38AM 50.2240 9.3440 219° Southwest 237 273 8,000  Level FlightAware
06:38AM 50.2200 9.3360 232° Southwest 233 268 8,000  Level FlightAware
06:38AM 50.2150 9.3250 235° Southwest 232 267 8,000 -540 Level FlightAware
06:39AM 50.2070 9.3020 241° Southwest 230 265 7,800 -900 Descending FlightAware
06:39AM 50.1990 9.2710 248° West 227 261 7,500 -1,080 Descending FlightAware
06:39AM 50.1930 9.2400 253° West 228 262 7,100 -780 Descending FlightAware
06:40AM 50.1870 9.2110 252° West 220 253 7,000 -720 Descending FlightAware
06:40AM 50.1810 9.1870 249° West 213 245 6,700 -960 Descending FlightAware
06:40AM 50.1740 9.1540 252° West 208 239 6,400 -1,020 Descending FlightAware
06:41AM 50.1680 9.1280 250° West 208 239 6,000 -1,080 Descending FlightAware
06:41AM 50.1610 9.0990 249° West 204 235 5,700 -840 Descending FlightAware
06:41AM 50.1540 9.0680 251° West 189 217 5,400 -720 Descending FlightAware
06:42AM 50.1480 9.0420 250° West 180 207 5,200 -780 Descending FlightAware
06:42AM 50.1440 9.0280 246° West 177 204 5,000 -1,200 Descending FlightAware
06:42AM 50.1390 9.0030 253° West 175 201 4,600 -1,140 Descending FlightAware
06:43AM 50.1320 8.9760 248° West 173 199 4,200 -720 Descending FlightAware
06:43AM 50.1270 8.9520 252° West 174 200 4,100 -180 Descending FlightAware
06:43AM 50.1210 8.9290 248° West 173 199 4,100  Level FlightAware
06:44AM 50.1170 8.9100 252° West 173 199 4,100  Level FlightAware
06:44AM 50.1110 8.8870 248° West 172 198 4,100  Level FlightAware
06:44AM 50.1060 8.8630 252° West 172 198 4,100  Level FlightAware
06:45AM 50.1020 8.8470 249° West 172 198 4,100 -660 Level FlightAware
06:45AM 50.0950 8.8180 249° West 172 198 3,700 -960 Descending FlightAware
06:45AM 50.0900 8.7960 251° West 170 196 3,400 -960 Descending FlightAware
06:45AM 50.0860 8.7810 247° West 169 194 3,200 -1,020 Descending FlightAware
06:46AM 50.0800 8.7550 250° West 169 194 2,800 -960 Descending FlightAware
06:46AM 50.0740 8.7310 249° West 167 192 2,500 -960 Descending FlightAware
06:46AM 50.0710 8.7180 250° West 162 186 2,300 -960 Descending FlightAware
06:47AM 50.0660 8.6960 251° West 155 178 2,000 -900 Descending FlightAware
06:47AM 50.0610 8.6750 250° West 148 170 1,700 -840 Descending FlightAware
06:47AM 50.0570 8.6590 249° West 147 169 1,500 -720 Descending FlightAware
06:48AM 50.0530 8.6400 252° West 148 170 1,300 -780 Descending FlightAware
06:48AM 50.0480 8.6190 250° West 147 169 1,000 -900 Descending FlightAware
06:48AM 50.0430 8.5990 249° West 147 169 700 -900 Descending FlightAware
06:49AM 50.0390 8.5800 252° West 146 168 400 -900 Descending FlightAware
06:49AM 50.0340 8.5620 247° West 72 83 -1,020 Descending FlightAware